createdAt,value
2022-10-08T00:02:15.075Z,16.10
2022-10-08T00:04:45.378Z,10.77
2022-10-08T00:07:14.945Z,10.43
2022-10-08T00:09:47.150Z,13.45
2022-10-08T00:12:16.696Z,10.35
2022-10-08T00:14:46.303Z,13.63
2022-10-08T00:17:15.848Z,16.75
2022-10-08T00:19:45.526Z,12.43
2022-10-08T00:22:15.062Z,14.95
2022-10-08T00:24:47.191Z,9.45
2022-10-08T00:27:16.874Z,13.05
2022-10-08T00:29:46.973Z,12.85
2022-10-08T00:32:17.475Z,25.70
2022-10-08T00:34:47.024Z,17.25
2022-10-08T00:37:18.195Z,15.60
2022-10-08T00:39:50.373Z,13.50
2022-10-08T00:42:19.908Z,9.83
2022-10-08T00:44:58.763Z,21.25
2022-10-08T00:47:38.573Z,17.20
2022-10-08T00:50:12.381Z,15.77
2022-10-08T00:52:47.520Z,13.68
2022-10-08T00:55:21.933Z,13.45
2022-10-08T00:57:51.884Z,15.90
2022-10-08T01:00:23.813Z,13.40
2022-10-08T01:02:53.453Z,13.73
2022-10-08T01:05:33.547Z,16.17
2022-10-08T01:08:08.972Z,12.53
2022-10-08T01:10:47.108Z,16.08
2022-10-08T01:13:22.823Z,13.40
2022-10-08T01:15:58.820Z,15.02
2022-10-08T01:18:55.378Z,15.65
2022-10-08T01:21:29.166Z,10.15
2022-10-08T01:24:11.316Z,13.68
2022-10-08T01:26:52.397Z,13.15
2022-10-08T01:29:26.721Z,12.43
2022-10-08T01:32:01.832Z,13.82
2022-10-08T01:34:35.329Z,17.63
2022-10-08T01:37:06.287Z,16.00
2022-10-08T01:39:37.803Z,13.23
2022-10-08T01:42:10.198Z,13.77
2022-10-08T01:44:45.243Z,19.00
2022-10-08T01:47:17.214Z,13.68
2022-10-08T01:49:51.013Z,18.90
2022-10-08T01:52:23.387Z,13.98
2022-10-08T01:54:56.539Z,11.50
2022-10-08T01:57:26.391Z,9.88
2022-10-08T02:00:03.102Z,10.57
2022-10-08T02:02:42.112Z,14.50
2022-10-08T02:05:12.134Z,19.40
2022-10-08T02:07:44.075Z,16.70
2022-10-08T02:10:15.564Z,12.95
2022-10-08T02:12:46.294Z,14.60
2022-10-08T02:15:22.338Z,13.25
2022-10-08T02:17:59.533Z,14.40
2022-10-08T02:20:35.120Z,10.85
2022-10-08T02:23:09.391Z,12.48
2022-10-08T02:25:41.339Z,16.25
2022-10-08T02:28:13.536Z,14.30
2022-10-08T02:30:49.735Z,15.15
2022-10-08T02:33:24.418Z,15.43
2022-10-08T02:35:56.193Z,13.20
2022-10-08T02:38:28.327Z,15.88
2022-10-08T02:41:00.867Z,14.35
2022-10-08T02:43:32.675Z,20.92
2022-10-08T02:46:09.070Z,13.55
2022-10-08T02:48:42.358Z,14.57
2022-10-08T02:51:15.732Z,17.08
2022-10-08T02:53:46.004Z,11.13
2022-10-08T02:56:18.230Z,15.00
2022-10-08T02:58:47.856Z,16.10
2022-10-08T03:01:26.547Z,14.45
2022-10-08T03:03:59.953Z,14.43
2022-10-08T03:06:30.051Z,13.18
2022-10-08T03:09:00.997Z,14.07
2022-10-08T03:11:32.126Z,16.30
2022-10-08T03:14:02.685Z,14.35
2022-10-08T03:16:40.667Z,13.33
2022-10-08T03:19:11.206Z,12.50
2022-10-08T03:21:41.501Z,19.80
2022-10-08T03:24:11.879Z,17.73
2022-10-08T03:26:41.731Z,19.88
2022-10-08T03:29:11.863Z,22.33
2022-10-08T03:31:44.043Z,13.90
2022-10-08T03:34:13.651Z,14.77
2022-10-08T03:36:43.284Z,16.48
2022-10-08T03:39:13.384Z,16.08
2022-10-08T03:41:43.408Z,17.58
2022-10-08T03:44:13.426Z,18.83
2022-10-08T03:46:45.616Z,11.70
2022-10-08T03:49:15.157Z,17.98
2022-10-08T03:51:44.740Z,14.65
2022-10-08T03:54:14.305Z,11.50
2022-10-08T03:56:43.820Z,10.95
2022-10-08T03:59:13.742Z,14.70
2022-10-08T04:01:45.928Z,10.07
2022-10-08T04:04:15.711Z,14.60
2022-10-08T04:06:45.332Z,12.80
2022-10-08T04:09:15.056Z,14.70
2022-10-08T04:11:44.625Z,23.77
2022-10-08T04:14:14.219Z,21.25
2022-10-08T04:16:47.459Z,17.08
2022-10-08T04:19:17.602Z,15.05
2022-10-08T04:21:47.264Z,16.63
2022-10-08T04:24:20.367Z,18.25
2022-10-08T04:26:49.927Z,18.98
2022-10-08T04:29:19.716Z,24.50
2022-10-08T04:31:51.840Z,15.27
2022-10-08T04:34:21.414Z,18.52
2022-10-08T04:36:50.933Z,21.42
2022-10-08T04:39:20.520Z,13.43
2022-10-08T04:41:50.131Z,19.25
2022-10-08T04:44:19.760Z,16.40
2022-10-08T04:46:51.956Z,16.73
2022-10-08T04:49:22.104Z,16.73
2022-10-08T04:51:51.635Z,17.73
2022-10-08T04:54:21.226Z,17.50
2022-10-08T04:56:50.846Z,16.55
2022-10-08T04:59:20.363Z,15.77
2022-10-08T05:01:52.877Z,19.80
2022-10-08T05:04:22.403Z,17.83
2022-10-08T05:06:52.472Z,20.85
2022-10-08T05:09:22.156Z,23.50
2022-10-08T05:11:52.906Z,19.60
2022-10-08T05:14:22.500Z,19.90
2022-10-08T05:16:54.759Z,17.05
2022-10-08T05:19:24.469Z,18.23
2022-10-08T05:21:54.055Z,18.90
2022-10-08T05:24:23.623Z,19.48
2022-10-08T05:26:58.523Z,18.50
2022-10-08T05:29:30.122Z,19.13
2022-10-08T05:32:02.286Z,15.93
2022-10-08T05:34:31.869Z,19.25
2022-10-08T05:37:01.447Z,21.10
2022-10-08T05:39:30.966Z,22.10
2022-10-08T05:42:00.509Z,19.25
2022-10-08T05:44:32.807Z,19.17
2022-10-08T05:47:07.081Z,22.50
2022-10-08T05:49:36.889Z,16.85
2022-10-08T05:52:06.450Z,20.80
2022-10-08T05:54:35.984Z,14.30
2022-10-08T05:57:05.554Z,15.38
2022-10-08T05:59:35.128Z,20.35
2022-10-08T06:02:07.304Z,18.67
2022-10-08T06:04:36.926Z,15.43
2022-10-08T06:07:06.513Z,17.17
2022-10-08T06:09:36.169Z,15.23
2022-10-08T06:12:06.536Z,19.33
2022-10-08T06:14:36.206Z,16.17
2022-10-08T06:17:08.341Z,18.03
2022-10-08T06:19:38.134Z,18.77
2022-10-08T06:22:07.767Z,18.30
2022-10-08T06:24:37.281Z,17.97
2022-10-08T06:27:07.074Z,20.75
2022-10-08T06:29:36.772Z,23.95
2022-10-08T06:32:09.404Z,21.30
2022-10-08T06:34:38.932Z,20.50
2022-10-08T06:37:08.474Z,23.10
2022-10-08T06:39:37.995Z,20.63
2022-10-08T06:42:07.549Z,21.27
2022-10-08T06:44:40.167Z,21.17
2022-10-08T06:47:12.268Z,19.77
2022-10-08T06:49:41.847Z,28.40
2022-10-08T06:52:12.483Z,18.92
2022-10-08T06:54:42.051Z,21.60
2022-10-08T06:57:11.578Z,21.83
2022-10-08T06:59:41.155Z,21.50
2022-10-08T07:02:14.240Z,20.38
2022-10-08T07:04:43.820Z,25.35
2022-10-08T07:07:13.375Z,25.20
2022-10-08T07:09:42.892Z,27.30
2022-10-08T07:12:12.647Z,29.67
2022-10-08T07:14:42.383Z,31.10
2022-10-08T07:17:14.487Z,27.25
2022-10-08T07:19:44.109Z,34.80
2022-10-08T07:22:13.635Z,34.25
2022-10-08T07:24:43.155Z,34.65
2022-10-08T07:27:12.701Z,38.78
2022-10-08T07:29:42.340Z,42.42
2022-10-08T07:32:14.467Z,38.95
2022-10-08T07:34:44.132Z,44.15
2022-10-08T07:37:13.641Z,44.50
2022-10-08T07:39:43.585Z,47.72
2022-10-08T07:42:13.128Z,43.83
2022-10-08T07:44:42.628Z,47.47
2022-10-08T07:47:14.825Z,46.78
2022-10-08T07:49:44.360Z,49.50
2022-10-08T07:52:13.933Z,44.38
2022-10-08T07:54:45.318Z,44.07
2022-10-08T07:57:14.908Z,50.05
2022-10-08T07:59:44.457Z,46.60
2022-10-08T08:02:16.897Z,43.60
2022-10-08T08:04:46.512Z,55.55
2022-10-08T08:07:16.055Z,44.67
2022-10-08T08:09:45.575Z,44.33
2022-10-08T08:12:15.185Z,49.80
2022-10-08T08:14:44.789Z,50.63
2022-10-08T08:17:16.947Z,51.80
2022-10-08T08:19:46.598Z,44.10
2022-10-08T08:22:16.151Z,42.97
2022-10-08T08:24:45.705Z,45.17
2022-10-08T08:27:15.384Z,53.08
2022-10-08T08:29:44.925Z,45.75
2022-10-08T08:32:17.529Z,42.13
2022-10-08T08:34:47.161Z,47.10
2022-10-08T08:37:16.784Z,45.40
2022-10-08T08:39:46.311Z,48.28
2022-10-08T08:42:36.935Z,50.20
2022-10-08T08:45:22.749Z,49.00
2022-10-08T08:48:05.816Z,44.40
2022-10-08T08:50:37.460Z,41.95
2022-10-08T08:53:08.771Z,51.00
2022-10-08T08:55:41.160Z,42.28
2022-10-08T08:58:25.683Z,43.97
2022-10-08T09:00:59.753Z,41.78
2022-10-08T09:03:34.773Z,45.80
2022-10-08T09:06:09.858Z,39.28
2022-10-08T09:08:43.522Z,37.47
2022-10-08T09:11:16.278Z,31.42
2022-10-08T09:13:49.293Z,34.55
2022-10-08T09:16:19.810Z,32.08
2022-10-08T09:18:53.451Z,30.10
2022-10-08T09:21:23.659Z,40.22
2022-10-08T09:23:53.243Z,28.20
2022-10-08T09:26:24.597Z,28.23
2022-10-08T09:28:55.644Z,27.13
2022-10-08T09:31:30.294Z,27.42
2022-10-08T09:34:08.559Z,28.05
2022-10-08T09:36:39.992Z,28.42
2022-10-08T09:39:16.010Z,30.47
2022-10-08T09:41:47.153Z,23.67
2022-10-08T09:44:22.339Z,29.92
2022-10-08T09:46:53.845Z,20.13
2022-10-08T09:49:31.123Z,22.02
2022-10-08T09:52:03.532Z,17.38
2022-10-08T09:54:36.923Z,22.57
2022-10-08T09:57:07.377Z,15.52
2022-10-08T09:59:45.208Z,16.65
2022-10-08T10:02:32.075Z,14.13
2022-10-08T10:05:06.187Z,16.20
2022-10-08T10:07:41.290Z,13.55
2022-10-08T10:10:20.239Z,17.58
2022-10-08T10:12:52.500Z,17.87
2022-10-08T10:15:24.776Z,16.33
2022-10-08T10:17:56.292Z,15.10
2022-10-08T10:20:31.965Z,16.25
2022-10-08T10:23:03.754Z,13.13
2022-10-08T10:25:38.485Z,14.07
2022-10-08T10:28:11.626Z,14.10
2022-10-08T10:30:50.830Z,13.68
2022-10-08T10:33:24.610Z,12.27
2022-10-08T10:36:00.386Z,9.77
2022-10-08T10:38:31.948Z,12.80
2022-10-08T10:41:11.043Z,12.20
2022-10-08T10:43:48.154Z,11.65
2022-10-08T10:46:27.067Z,10.73
2022-10-08T10:48:57.553Z,9.93
2022-10-08T10:51:39.455Z,10.63
2022-10-08T10:54:18.877Z,7.88
2022-10-08T10:56:52.098Z,8.35
2022-10-08T10:59:33.715Z,7.68
2022-10-08T11:02:09.741Z,6.27
2022-10-08T11:04:47.676Z,8.02
2022-10-08T11:07:35.584Z,9.07
2022-10-08T11:10:12.035Z,8.88
2022-10-08T11:12:46.925Z,7.23
2022-10-08T11:15:24.827Z,8.90
2022-10-08T11:18:03.932Z,5.63
2022-10-08T11:20:47.019Z,6.60
2022-10-08T11:23:39.928Z,6.75
2022-10-08T11:26:22.858Z,5.63
2022-10-08T11:29:01.194Z,8.32
2022-10-08T11:31:36.498Z,6.10
2022-10-08T11:34:06.449Z,6.68
2022-10-08T11:36:40.252Z,5.90
2022-10-08T11:39:16.935Z,7.10
2022-10-08T11:41:53.417Z,9.30
2022-10-08T11:44:23.748Z,4.68
2022-10-08T11:46:53.453Z,5.07
2022-10-08T11:49:50.356Z,6.40
2022-10-08T11:52:19.979Z,7.50
2022-10-08T11:54:56.111Z,8.88
2022-10-08T12:00:35.057Z,6.63
2022-10-08T12:03:05.885Z,7.63
2022-10-08T12:05:49.305Z,5.37
2022-10-08T12:08:50.728Z,8.30
2022-10-08T12:11:50.720Z,7.82
2022-10-08T12:14:50.338Z,5.57
2022-10-08T12:17:19.958Z,5.27
2022-10-08T12:20:22.786Z,9.20
2022-10-08T12:23:38.243Z,5.43
2022-10-08T12:26:15.059Z,7.22
2022-10-08T12:28:51.872Z,7.00
2022-10-08T12:31:29.459Z,4.70
2022-10-08T12:34:04.353Z,5.63
2022-10-08T12:36:46.925Z,5.60
2022-10-08T12:39:24.547Z,10.75
2022-10-08T12:42:01.215Z,8.50
2022-10-08T12:44:41.044Z,14.10
2022-10-08T12:47:21.540Z,6.90
2022-10-08T12:49:56.853Z,6.40
2022-10-08T12:52:27.050Z,9.30
2022-10-08T12:54:58.244Z,5.50
2022-10-08T12:57:30.523Z,20.23
2022-10-08T13:00:00.915Z,7.32
2022-10-08T13:02:40.050Z,7.70
2022-10-08T13:05:25.353Z,4.80
2022-10-08T13:07:55.197Z,6.55
2022-10-08T13:10:26.491Z,15.15
2022-10-08T13:13:03.873Z,7.50
2022-10-08T13:15:34.109Z,8.60
2022-10-08T13:18:15.693Z,19.90
2022-10-08T13:20:59.167Z,6.32
2022-10-08T13:23:34.041Z,6.50
2022-10-08T13:26:03.768Z,6.90
2022-10-08T13:28:59.426Z,5.15
2022-10-08T13:31:25.815Z,8.95
2022-10-08T13:33:58.019Z,5.85
2022-10-08T13:36:27.626Z,5.38
2022-10-08T13:38:57.191Z,5.80
2022-10-08T13:41:26.885Z,7.70
2022-10-08T13:43:56.656Z,7.80
2022-10-08T13:46:26.285Z,6.77
2022-10-08T13:48:58.504Z,6.00
2022-10-08T13:51:28.109Z,5.57
2022-10-08T13:53:58.079Z,9.77
2022-10-08T13:56:27.661Z,7.40
2022-10-08T13:58:57.191Z,4.20
2022-10-08T14:01:26.811Z,3.85
2022-10-08T14:03:58.998Z,4.33
2022-10-08T14:06:28.519Z,8.15
2022-10-08T14:08:58.084Z,6.60
2022-10-08T14:11:27.668Z,4.22
2022-10-08T14:13:57.184Z,6.50
2022-10-08T14:16:26.818Z,6.68
2022-10-08T14:18:59.368Z,6.17
2022-10-08T14:21:29.260Z,9.52
2022-10-08T14:23:58.792Z,4.53
2022-10-08T14:26:28.757Z,3.80
2022-10-08T14:29:00.138Z,5.70
2022-10-08T14:31:30.464Z,6.80
2022-10-08T14:34:02.622Z,8.35
2022-10-08T14:36:35.110Z,6.80
2022-10-08T14:39:04.891Z,8.35
2022-10-08T14:41:34.895Z,6.32
2022-10-08T14:44:04.450Z,5.32
2022-10-08T14:46:34.016Z,8.70
2022-10-08T14:49:06.231Z,11.40
2022-10-08T14:51:38.704Z,6.68
2022-10-08T14:54:08.956Z,5.63
2022-10-08T14:56:44.883Z,9.25
2022-10-08T14:59:14.986Z,12.70
2022-10-08T15:01:44.697Z,9.90
2022-10-08T15:04:17.732Z,9.20
2022-10-08T15:06:47.378Z,9.02
2022-10-08T15:09:17.772Z,9.88
2022-10-08T15:11:47.322Z,5.93
2022-10-08T15:14:17.225Z,9.23
2022-10-08T15:16:46.838Z,7.70
2022-10-08T15:19:23.520Z,5.28
2022-10-08T15:21:53.808Z,10.57
2022-10-08T15:24:23.308Z,5.75
2022-10-08T15:26:52.816Z,7.75
2022-10-08T15:29:22.630Z,8.82
2022-10-08T15:31:52.505Z,11.55
2022-10-08T15:34:24.753Z,11.38
2022-10-08T15:36:56.702Z,10.93
2022-10-08T15:39:26.485Z,7.63
2022-10-08T15:41:56.133Z,9.13
2022-10-08T15:44:26.899Z,8.50
2022-10-08T15:47:01.548Z,9.88
2022-10-08T15:49:37.750Z,9.67
2022-10-08T15:52:08.549Z,8.23
2022-10-08T15:54:38.615Z,8.77
2022-10-08T15:57:08.726Z,5.70
2022-10-08T15:59:38.888Z,11.13
2022-10-08T16:02:12.848Z,7.20
2022-10-08T16:04:48.161Z,4.50
2022-10-08T16:07:17.961Z,5.80
2022-10-08T16:09:47.634Z,6.10
2022-10-08T16:12:17.229Z,8.25
2022-10-08T16:14:46.845Z,6.05
2022-10-08T16:17:16.489Z,4.40
2022-10-08T16:19:48.759Z,5.10
2022-10-08T16:22:18.394Z,6.47
2022-10-08T16:24:47.934Z,6.20
2022-10-08T16:27:17.433Z,7.78
2022-10-08T16:29:46.984Z,5.85
2022-10-08T16:32:16.490Z,5.80
2022-10-08T16:34:53.262Z,4.75
2022-10-08T16:37:23.164Z,6.40
2022-10-08T16:39:52.720Z,3.42
2022-10-08T16:42:22.269Z,5.90
2022-10-08T16:44:51.814Z,7.28
2022-10-08T16:47:21.616Z,5.25
2022-10-08T16:49:53.845Z,5.00
2022-10-08T16:52:23.420Z,6.10
2022-10-08T16:54:54.736Z,7.90
2022-10-08T16:57:25.463Z,7.60
2022-10-08T16:59:54.984Z,5.93
2022-10-08T17:02:26.141Z,6.75
2022-10-08T17:04:59.302Z,7.60
2022-10-08T17:07:29.091Z,7.25
2022-10-08T17:09:58.608Z,10.38
2022-10-08T17:12:28.199Z,4.97
2022-10-08T17:14:57.769Z,6.30
2022-10-08T17:17:27.392Z,7.30
2022-10-08T17:19:59.585Z,7.03
2022-10-08T17:22:29.291Z,6.80
2022-10-08T17:24:58.815Z,8.27
2022-10-08T17:27:28.352Z,9.52
2022-10-08T17:29:57.892Z,5.37
2022-10-08T17:32:27.529Z,5.70
2022-10-08T17:34:59.645Z,4.95
2022-10-08T17:37:29.222Z,10.80
2022-10-08T17:39:58.932Z,5.80
2022-10-08T17:42:28.464Z,9.20
2022-10-08T17:44:58.657Z,7.28
2022-10-08T17:47:29.306Z,7.45
2022-10-08T17:50:01.626Z,6.03
2022-10-08T17:52:31.232Z,8.43
2022-10-08T17:55:00.857Z,9.10
2022-10-08T17:57:30.446Z,7.50
2022-10-08T18:00:00.048Z,8.20
2022-10-08T18:02:29.758Z,12.13
2022-10-08T18:05:01.953Z,6.03
2022-10-08T18:07:32.687Z,8.75
2022-10-08T18:10:02.219Z,11.77
2022-10-08T18:12:31.860Z,7.32
2022-10-08T18:15:01.382Z,7.03
2022-10-08T18:17:30.914Z,6.97
2022-10-08T18:20:03.092Z,13.10
2022-10-08T18:22:32.731Z,7.95
2022-10-08T18:25:03.923Z,8.05
2022-10-08T18:27:33.600Z,11.20
2022-10-08T18:30:03.451Z,12.45
2022-10-08T18:32:32.969Z,7.43
2022-10-08T18:35:05.087Z,10.52
2022-10-08T18:37:34.620Z,10.02
2022-10-08T18:40:04.200Z,10.60
2022-10-08T18:42:33.720Z,9.00
2022-10-08T18:45:03.282Z,10.80
2022-10-08T18:47:33.008Z,10.40
2022-10-08T18:50:05.221Z,9.85
2022-10-08T18:52:34.799Z,11.65
2022-10-08T18:55:04.340Z,10.30
2022-10-08T18:57:33.972Z,11.18
2022-10-08T19:00:03.531Z,9.63
2022-10-08T19:02:33.226Z,8.13
2022-10-08T19:05:05.384Z,8.57
2022-10-08T19:07:35.636Z,9.13
2022-10-08T19:10:05.308Z,10.43
2022-10-08T19:12:34.957Z,8.02
2022-10-08T19:15:04.485Z,11.55
2022-10-08T19:17:34.026Z,10.98
2022-10-08T19:20:06.325Z,7.78
2022-10-08T19:22:35.937Z,7.22
2022-10-08T19:25:05.511Z,15.57
2022-10-08T19:27:35.375Z,10.37
2022-10-08T19:30:04.972Z,9.65
2022-10-08T19:32:34.571Z,11.05
2022-10-08T19:35:07.549Z,10.90
2022-10-08T19:37:37.149Z,7.97
2022-10-08T19:40:07.777Z,9.93
2022-10-08T19:42:37.421Z,10.73
2022-10-08T19:45:07.898Z,12.65
2022-10-08T19:47:38.151Z,12.98
2022-10-08T19:50:11.229Z,11.50
2022-10-08T19:52:40.747Z,11.23
2022-10-08T19:55:11.592Z,9.55
2022-10-08T19:57:41.124Z,9.43
2022-10-08T20:00:11.993Z,9.50
2022-10-08T20:02:41.569Z,10.82
2022-10-08T20:05:13.982Z,11.95
2022-10-08T20:07:43.553Z,10.05
2022-10-08T20:10:13.468Z,9.35
2022-10-08T20:12:43.461Z,9.63
2022-10-08T20:15:13.171Z,8.15
2022-10-08T20:17:43.029Z,13.13
2022-10-08T20:20:32.397Z,14.90
2022-10-08T20:23:02.819Z,14.55
2022-10-08T20:25:32.412Z,12.63
2022-10-08T20:28:02.007Z,12.65
2022-10-08T20:30:32.589Z,8.50
2022-10-08T20:33:02.067Z,13.55
2022-10-08T20:35:34.203Z,9.82
2022-10-08T20:38:03.785Z,7.57
2022-10-08T20:40:33.439Z,17.30
2022-10-08T20:43:03.006Z,13.13
2022-10-08T20:45:32.603Z,8.90
2022-10-08T20:48:02.166Z,7.95
2022-10-08T20:50:34.346Z,10.20
2022-10-08T20:53:03.871Z,9.85
2022-10-08T20:55:33.384Z,7.83
2022-10-08T20:58:02.901Z,14.27
2022-10-08T21:00:34.164Z,11.55
2022-10-08T21:03:03.815Z,8.02
2022-10-08T21:05:43.075Z,12.50
2022-10-08T21:08:13.648Z,9.93
2022-10-08T21:10:43.380Z,9.90
2022-10-08T21:13:13.102Z,11.60
2022-10-08T21:15:42.808Z,9.57
2022-10-08T21:18:12.372Z,11.45
2022-10-08T21:20:44.885Z,10.35
2022-10-08T21:23:14.446Z,10.90
2022-10-08T21:25:43.963Z,9.68
2022-10-08T21:28:13.551Z,12.77
2022-10-08T21:30:43.093Z,12.60
2022-10-08T21:33:12.642Z,16.15
2022-10-08T21:35:44.779Z,8.88
2022-10-08T21:38:14.300Z,13.85
2022-10-08T21:40:43.843Z,12.98
2022-10-08T21:43:13.378Z,13.30
2022-10-08T21:45:42.961Z,9.52
2022-10-08T21:48:12.570Z,11.83
2022-10-08T21:50:44.989Z,10.02
2022-10-08T21:53:14.501Z,13.20
2022-10-08T21:55:44.016Z,9.70
2022-10-08T21:58:13.573Z,11.27
2022-10-08T22:00:43.276Z,10.15
2022-10-08T22:03:12.845Z,10.38
2022-10-08T22:05:52.172Z,9.52
2022-10-08T22:08:22.086Z,16.00
2022-10-08T22:10:51.832Z,16.42
2022-10-08T22:13:21.588Z,15.02
2022-10-08T22:15:55.489Z,10.80
2022-10-08T22:18:25.363Z,11.77
2022-10-08T22:20:57.701Z,13.18
2022-10-08T22:23:27.464Z,13.77
2022-10-08T22:25:57.544Z,10.00
2022-10-08T22:28:27.770Z,11.85
2022-10-08T22:30:57.539Z,12.43
2022-10-08T22:33:27.096Z,11.87
2022-10-08T22:36:02.602Z,10.57
2022-10-08T22:38:33.157Z,11.35
2022-10-08T22:41:06.896Z,10.57
2022-10-08T22:43:36.797Z,10.57
2022-10-08T22:46:07.620Z,13.23
2022-10-08T22:48:37.237Z,11.32
2022-10-08T22:51:11.389Z,8.75
2022-10-08T22:53:41.164Z,10.25
2022-10-08T22:56:13.817Z,9.60
2022-10-08T22:58:43.348Z,11.70
2022-10-08T23:01:15.072Z,11.32
2022-10-08T23:03:44.909Z,11.15
2022-10-08T23:06:20.424Z,10.50
2022-10-08T23:08:51.728Z,13.43
2022-10-08T23:11:21.284Z,11.43
2022-10-08T23:13:53.168Z,12.05
2022-10-08T23:16:23.110Z,13.10
2022-10-08T23:18:56.280Z,13.88
2022-10-08T23:21:28.731Z,7.25
2022-10-08T23:23:59.024Z,12.93
2022-10-08T23:26:29.676Z,12.70
2022-10-08T23:29:00.565Z,11.20
2022-10-08T23:31:31.567Z,11.43
2022-10-08T23:34:01.669Z,10.20
2022-10-08T23:36:37.055Z,9.38
2022-10-08T23:39:07.282Z,10.23
2022-10-08T23:41:37.003Z,11.40
2022-10-08T23:44:06.826Z,13.82
2022-10-08T23:46:36.357Z,13.18
2022-10-08T23:49:05.974Z,11.53
2022-10-08T23:51:38.080Z,13.70
2022-10-08T23:54:08.060Z,11.43
2022-10-08T23:56:37.816Z,11.73
2022-10-08T23:59:07.425Z,12.63
